createdAt,value
2023-06-10T00:00:07.218Z,18.60
2023-06-10T00:02:34.154Z,18.60
2023-06-10T00:05:01.070Z,18.50
2023-06-10T00:07:27.862Z,18.40
2023-06-10T00:09:54.606Z,18.40
2023-06-10T00:12:21.487Z,18.30
2023-06-10T00:14:48.489Z,18.20
2023-06-10T00:17:16.632Z,18.10
2023-06-10T00:19:43.404Z,18.10
2023-06-10T00:22:10.272Z,18.10
2023-06-10T00:24:37.073Z,18.10
2023-06-10T00:27:04.025Z,18.00
2023-06-10T00:29:30.781Z,18.00
2023-06-10T00:31:57.589Z,18.00
2023-06-10T00:34:26.116Z,18.00
2023-06-10T00:36:52.887Z,17.90
2023-06-10T00:39:19.678Z,17.90
2023-06-10T00:41:46.463Z,17.90
2023-06-10T00:44:13.227Z,17.90
2023-06-10T00:46:40.010Z,17.90
2023-06-10T00:49:07.001Z,17.90
2023-06-10T00:51:35.395Z,17.90
2023-06-10T00:54:02.503Z,17.90
2023-06-10T00:56:29.431Z,17.90
2023-06-10T00:58:56.195Z,17.90
2023-06-10T01:01:23.178Z,17.90
2023-06-10T01:03:50.051Z,17.90
2023-06-10T01:06:24.365Z,17.90
2023-06-10T01:09:01.395Z,17.90
2023-06-10T01:11:35.199Z,17.80
2023-06-10T01:14:03.723Z,17.80
2023-06-10T01:16:30.716Z,17.80
2023-06-10T01:18:57.487Z,17.70
2023-06-10T01:21:25.791Z,17.70
2023-06-10T01:23:54.899Z,17.70
2023-06-10T01:26:25.791Z,17.60
2023-06-10T01:28:58.182Z,17.60
2023-06-10T01:31:35.191Z,17.60
2023-06-10T01:34:03.913Z,17.60
2023-06-10T01:36:34.581Z,17.50
2023-06-10T01:39:02.988Z,17.50
2023-06-10T01:41:30.569Z,17.50
2023-06-10T01:43:57.456Z,17.40
2023-06-10T01:46:24.353Z,17.30
2023-06-10T01:48:51.165Z,17.30
2023-06-10T01:51:18.060Z,17.40
2023-06-10T01:53:46.308Z,17.30
2023-06-10T01:56:13.191Z,17.30
2023-06-10T01:58:39.960Z,17.30
2023-06-10T02:01:06.859Z,17.20
2023-06-10T02:03:33.784Z,17.20
2023-06-10T02:06:00.728Z,17.20
2023-06-10T02:08:27.556Z,17.10
2023-06-10T02:10:55.850Z,17.10
2023-06-10T02:13:22.651Z,17.10
2023-06-10T02:15:49.438Z,17.10
2023-06-10T02:18:16.256Z,17.00
2023-06-10T02:20:43.082Z,17.00
2023-06-10T02:23:09.867Z,17.00
2023-06-10T02:25:36.652Z,17.00
2023-06-10T02:28:05.258Z,16.90
2023-06-10T02:30:32.170Z,16.90
2023-06-10T02:32:58.995Z,16.90
2023-06-10T02:35:25.833Z,16.90
2023-06-10T02:37:52.670Z,16.80
2023-06-10T02:40:19.497Z,16.80
2023-06-10T02:42:46.318Z,16.70
2023-06-10T02:45:14.457Z,16.70
2023-06-10T02:47:42.342Z,16.70
2023-06-10T02:50:09.944Z,16.70
2023-06-10T02:52:36.984Z,16.60
2023-06-10T02:55:04.007Z,16.60
2023-06-10T02:57:30.801Z,16.60
2023-06-10T02:59:57.600Z,16.50
2023-06-10T03:02:26.195Z,16.50
2023-06-10T03:04:52.955Z,16.40
2023-06-10T03:07:19.694Z,16.40
2023-06-10T03:09:46.486Z,16.40
2023-06-10T03:12:13.314Z,16.30
2023-06-10T03:14:40.087Z,16.30
2023-06-10T03:17:07.004Z,16.30
2023-06-10T03:19:35.273Z,16.30
2023-06-10T03:22:09.329Z,16.30
2023-06-10T03:24:36.281Z,16.30
2023-06-10T03:27:03.283Z,16.20
2023-06-10T03:29:30.070Z,16.20
2023-06-10T03:31:56.929Z,16.20
2023-06-10T03:34:23.742Z,16.20
2023-06-10T03:36:51.889Z,16.10
2023-06-10T03:39:18.764Z,16.10
2023-06-10T03:41:45.560Z,16.10
2023-06-10T03:44:12.368Z,16.10
2023-06-10T03:46:39.201Z,16.10
2023-06-10T03:49:06.040Z,16.10
2023-06-10T03:51:32.852Z,16.20
2023-06-10T03:54:01.001Z,16.20
2023-06-10T03:56:27.782Z,16.20
2023-06-10T03:58:54.683Z,16.20
2023-06-10T04:01:21.606Z,16.20
2023-06-10T04:03:48.499Z,16.20
2023-06-10T04:06:15.483Z,16.20
2023-06-10T04:08:42.628Z,16.20
2023-06-10T04:11:10.787Z,16.20
2023-06-10T04:13:37.698Z,16.20
2023-06-10T04:16:05.041Z,16.20
2023-06-10T04:18:31.892Z,16.30
2023-06-10T04:20:58.659Z,16.40
2023-06-10T04:23:25.470Z,16.80
2023-06-10T04:25:52.244Z,17.20
2023-06-10T04:28:20.375Z,17.60
2023-06-10T04:30:47.183Z,17.90
2023-06-10T04:33:13.960Z,18.10
2023-06-10T04:35:40.777Z,18.30
2023-06-10T04:38:07.578Z,18.40
2023-06-10T04:40:34.483Z,18.60
2023-06-10T04:43:01.268Z,18.80
2023-06-10T04:45:29.389Z,19.10
2023-06-10T04:47:56.250Z,19.30
2023-06-10T04:50:23.158Z,19.30
2023-06-10T04:52:49.959Z,19.50
2023-06-10T04:55:17.073Z,19.40
2023-06-10T04:57:43.845Z,19.40
2023-06-10T05:00:11.781Z,19.40
2023-06-10T05:02:39.940Z,19.60
2023-06-10T05:05:07.499Z,19.60
2023-06-10T05:07:34.481Z,19.80
2023-06-10T05:10:01.297Z,19.90
2023-06-10T05:12:28.187Z,20.10
2023-06-10T05:14:54.956Z,20.40
2023-06-10T05:17:21.776Z,20.40
2023-06-10T05:19:49.865Z,20.50
2023-06-10T05:22:16.630Z,20.70
2023-06-10T05:24:43.435Z,20.70
2023-06-10T05:27:10.346Z,21.20
2023-06-10T05:29:37.166Z,21.50
2023-06-10T05:32:04.603Z,21.60
2023-06-10T05:34:31.843Z,21.30
2023-06-10T05:36:59.998Z,21.60
2023-06-10T05:39:26.789Z,21.90
2023-06-10T05:41:53.561Z,22.00
2023-06-10T05:44:20.357Z,22.50
2023-06-10T05:46:47.284Z,22.30
2023-06-10T05:49:14.659Z,22.10
2023-06-10T05:51:41.532Z,22.00
2023-06-10T05:54:09.638Z,22.20
2023-06-10T05:56:36.815Z,22.50
2023-06-10T05:59:03.597Z,22.80
2023-06-10T06:01:30.355Z,22.90
2023-06-10T06:03:57.351Z,23.00
2023-06-10T06:06:24.452Z,23.30
2023-06-10T06:08:51.375Z,23.00
2023-06-10T06:11:19.725Z,22.50
2023-06-10T06:13:46.594Z,22.80
2023-06-10T06:16:13.420Z,22.60
2023-06-10T06:18:40.416Z,22.70
2023-06-10T06:21:07.193Z,23.20
2023-06-10T06:23:33.982Z,23.10
2023-06-10T06:26:00.914Z,22.80
2023-06-10T06:28:29.002Z,23.20
2023-06-10T06:30:56.044Z,23.10
2023-06-10T06:33:22.797Z,22.80
2023-06-10T06:35:49.612Z,23.30
2023-06-10T06:38:16.394Z,23.30
2023-06-10T06:40:43.322Z,23.00
2023-06-10T06:43:10.164Z,22.60
2023-06-10T06:45:38.395Z,22.80
2023-06-10T06:48:06.601Z,23.20
2023-06-10T06:50:33.555Z,23.70
2023-06-10T06:53:00.476Z,23.70
2023-06-10T06:55:27.238Z,23.30
2023-06-10T06:57:54.065Z,23.50
2023-06-10T07:00:21.053Z,23.60
2023-06-10T07:02:49.512Z,23.80
2023-06-10T07:05:16.265Z,24.00
2023-06-10T07:07:43.102Z,24.50
2023-06-10T07:10:10.221Z,24.80
2023-06-10T07:12:37.123Z,24.80
2023-06-10T07:15:04.621Z,24.90
2023-06-10T07:17:31.511Z,25.30
2023-06-10T07:19:59.650Z,24.90
2023-06-10T07:22:26.453Z,24.50
2023-06-10T07:24:53.219Z,24.40
2023-06-10T07:27:19.997Z,24.40
2023-06-10T07:29:46.750Z,24.50
2023-06-10T07:32:13.541Z,24.40
2023-06-10T07:34:40.326Z,24.70
2023-06-10T07:37:08.516Z,25.40
2023-06-10T07:39:35.389Z,26.20
2023-06-10T07:42:02.599Z,25.10
2023-06-10T07:44:29.367Z,25.00
2023-06-10T07:46:56.218Z,25.20
2023-06-10T07:49:23.394Z,25.30
2023-06-10T07:51:51.252Z,26.40
2023-06-10T07:54:19.402Z,26.70
2023-06-10T07:56:46.228Z,26.80
2023-06-10T07:59:13.028Z,26.70
2023-06-10T08:01:39.784Z,27.10
2023-06-10T08:04:06.927Z,27.50
2023-06-10T08:06:33.814Z,26.80
2023-06-10T08:09:00.616Z,26.70
2023-06-10T08:11:28.815Z,26.30
2023-06-10T08:13:55.475Z,26.00
2023-06-10T08:16:22.322Z,25.90
2023-06-10T08:18:49.143Z,26.00
2023-06-10T08:21:16.035Z,25.70
2023-06-10T08:23:42.918Z,25.50
2023-06-10T08:26:09.915Z,25.80
2023-06-10T08:28:38.052Z,25.80
2023-06-10T08:31:04.871Z,25.70
2023-06-10T08:33:31.682Z,25.70
2023-06-10T08:35:58.474Z,25.80
2023-06-10T08:38:25.252Z,26.00
2023-06-10T08:40:56.932Z,26.20
2023-06-10T08:43:30.385Z,26.50
2023-06-10T08:46:01.591Z,25.80
2023-06-10T08:48:30.341Z,25.40
2023-06-10T08:50:58.289Z,25.10
2023-06-10T08:53:27.021Z,25.60
2023-06-10T08:55:56.062Z,26.00
2023-06-10T08:58:23.273Z,26.10
2023-06-10T09:00:51.845Z,26.00
2023-06-10T09:03:20.206Z,26.00
2023-06-10T09:05:47.297Z,26.30
2023-06-10T09:08:14.538Z,26.80
2023-06-10T09:10:41.916Z,26.30
2023-06-10T09:13:08.848Z,25.80
2023-06-10T09:15:35.663Z,26.00
2023-06-10T09:18:02.611Z,26.00
2023-06-10T09:20:30.744Z,26.10
2023-06-10T09:22:57.545Z,26.50
2023-06-10T09:25:36.256Z,27.20
2023-06-10T09:28:03.560Z,26.30
2023-06-10T09:30:32.115Z,25.90
2023-06-10T09:33:01.039Z,26.40
2023-06-10T09:35:30.761Z,26.20
2023-06-10T09:37:58.867Z,26.20
2023-06-10T09:40:25.722Z,26.20
2023-06-10T09:42:55.366Z,26.10
2023-06-10T09:45:22.831Z,26.10
2023-06-10T09:47:53.155Z,26.30
2023-06-10T09:50:20.283Z,26.10
2023-06-10T09:52:48.732Z,26.30
2023-06-10T09:55:15.857Z,26.70
2023-06-10T09:57:42.753Z,27.10
2023-06-10T10:00:11.646Z,27.30
2023-06-10T10:02:46.256Z,27.10
2023-06-10T10:05:14.670Z,27.00
2023-06-10T10:07:43.689Z,27.30
2023-06-10T10:10:12.992Z,27.00
2023-06-10T10:12:41.072Z,27.00
2023-06-10T10:15:10.190Z,27.10
2023-06-10T10:17:41.184Z,27.30
2023-06-10T10:20:13.417Z,27.30
2023-06-10T10:22:41.287Z,27.30
2023-06-10T10:25:14.767Z,27.70
2023-06-10T10:27:45.642Z,28.00
2023-06-10T10:30:15.028Z,27.90
2023-06-10T10:32:51.823Z,27.60
2023-06-10T10:35:21.857Z,27.40
2023-06-10T10:37:48.998Z,27.20
2023-06-10T10:40:17.830Z,27.20
2023-06-10T10:42:45.272Z,27.50
2023-06-10T10:45:12.674Z,27.70
2023-06-10T10:47:40.828Z,27.40
2023-06-10T10:50:16.111Z,27.40
2023-06-10T10:52:54.662Z,27.50
2023-06-10T10:55:23.147Z,27.80
2023-06-10T10:57:56.568Z,28.20
2023-06-10T11:00:29.400Z,28.70
2023-06-10T11:03:01.705Z,29.10
2023-06-10T11:05:37.267Z,28.60
2023-06-10T11:08:04.447Z,28.80
2023-06-10T11:10:34.399Z,28.80
2023-06-10T11:13:01.522Z,29.00
2023-06-10T11:15:30.209Z,28.50
2023-06-10T11:18:20.579Z,28.20
2023-06-10T11:20:55.866Z,28.70
2023-06-10T11:23:44.570Z,28.90
2023-06-10T11:26:20.907Z,28.20
2023-06-10T11:29:04.131Z,28.40
2023-06-10T11:31:32.468Z,28.60
2023-06-10T11:34:00.638Z,28.50
2023-06-10T11:36:28.994Z,28.30
2023-06-10T11:38:57.923Z,28.50
2023-06-10T11:41:27.358Z,28.80
2023-06-10T11:43:54.940Z,28.80
2023-06-10T11:46:21.810Z,28.80
2023-06-10T11:48:52.418Z,29.20
2023-06-10T11:51:19.459Z,29.00
2023-06-10T11:53:46.423Z,29.10
2023-06-10T11:56:13.372Z,29.30
2023-06-10T11:58:46.022Z,29.00
2023-06-10T12:01:28.209Z,29.00
2023-06-10T12:04:00.778Z,28.60
2023-06-10T12:06:27.761Z,28.40
2023-06-10T12:08:55.040Z,28.30
2023-06-10T12:11:22.241Z,28.00
2023-06-10T12:13:51.023Z,28.20
2023-06-10T12:16:18.130Z,28.40
2023-06-10T12:18:46.021Z,28.70
2023-06-10T12:21:20.023Z,28.50
2023-06-10T12:24:07.249Z,28.80
2023-06-10T12:26:42.204Z,28.90
2023-06-10T12:29:23.752Z,28.70
2023-06-10T12:32:01.779Z,28.90
2023-06-10T12:34:33.853Z,29.00
2023-06-10T12:37:00.935Z,29.60
2023-06-10T12:39:27.718Z,29.40
2023-06-10T12:41:54.535Z,29.40
2023-06-10T12:44:32.066Z,29.30
2023-06-10T12:46:58.950Z,29.30
2023-06-10T12:49:25.872Z,29.40
2023-06-10T12:51:52.823Z,29.40
2023-06-10T12:54:19.654Z,29.80
2023-06-10T12:56:46.488Z,29.70
2023-06-10T12:59:13.297Z,29.60
2023-06-10T13:01:41.489Z,29.40
2023-06-10T13:04:08.328Z,29.60
2023-06-10T13:06:35.221Z,29.80
2023-06-10T13:09:01.965Z,29.80
2023-06-10T13:11:28.740Z,29.90
2023-06-10T13:13:55.486Z,29.50
2023-06-10T13:16:22.400Z,29.30
2023-06-10T13:18:50.674Z,29.50
2023-06-10T13:21:17.458Z,29.80
2023-06-10T13:23:45.409Z,29.80
2023-06-10T13:26:12.312Z,29.70
2023-06-10T13:28:39.057Z,29.40
2023-06-10T13:31:05.850Z,29.30
2023-06-10T13:33:32.633Z,29.50
2023-06-10T13:36:00.757Z,29.50
2023-06-10T13:38:27.450Z,29.20
2023-06-10T13:40:54.305Z,29.40
2023-06-10T13:43:21.106Z,29.40
2023-06-10T13:45:47.949Z,29.60
2023-06-10T13:48:14.810Z,29.90
2023-06-10T13:50:41.635Z,29.70
2023-06-10T13:53:09.866Z,29.50
2023-06-10T13:55:36.676Z,29.30
2023-06-10T13:58:03.485Z,29.20
2023-06-10T14:00:30.509Z,29.40
2023-06-10T14:02:57.392Z,29.40
2023-06-10T14:05:24.372Z,29.50
2023-06-10T14:07:51.141Z,29.80
2023-06-10T14:10:19.328Z,29.50
2023-06-10T14:12:46.153Z,29.40
2023-06-10T14:15:13.360Z,29.30
2023-06-10T14:17:40.499Z,29.40
2023-06-10T14:20:08.352Z,29.60
2023-06-10T14:22:35.189Z,29.90
2023-06-10T14:25:01.975Z,30.00
2023-06-10T14:27:30.121Z,29.80
2023-06-10T14:29:56.918Z,29.60
2023-06-10T14:32:23.969Z,29.40
2023-06-10T14:34:50.906Z,29.30
2023-06-10T14:37:17.716Z,29.20
2023-06-10T14:39:44.516Z,29.20
2023-06-10T14:42:11.292Z,29.30
2023-06-10T14:44:39.378Z,29.40
2023-06-10T14:47:06.219Z,29.30
2023-06-10T14:49:33.098Z,29.20
2023-06-10T14:51:59.860Z,29.10
2023-06-10T14:54:26.607Z,29.00
2023-06-10T14:56:53.445Z,29.20
2023-06-10T14:59:20.349Z,29.30
2023-06-10T15:01:48.514Z,29.40
2023-06-10T15:04:15.556Z,29.30
2023-06-10T15:06:42.483Z,29.30
2023-06-10T15:09:09.458Z,29.40
2023-06-10T15:11:37.401Z,29.80
2023-06-10T15:14:04.190Z,29.70
2023-06-10T15:16:31.182Z,29.40
2023-06-10T15:18:59.433Z,29.30
2023-06-10T15:21:26.184Z,29.30
2023-06-10T15:23:53.032Z,29.40
2023-06-10T15:26:20.050Z,29.60
2023-06-10T15:28:47.137Z,29.60
2023-06-10T15:31:13.989Z,29.40
2023-06-10T15:33:40.745Z,29.10
2023-06-10T15:36:08.992Z,29.20
2023-06-10T15:38:35.787Z,28.90
2023-06-10T15:41:02.599Z,28.70
2023-06-10T15:43:29.403Z,28.50
2023-06-10T15:45:56.278Z,28.60
2023-06-10T15:48:23.206Z,28.50
2023-06-10T15:50:50.148Z,28.70
2023-06-10T15:53:18.257Z,28.80
2023-06-10T15:55:44.883Z,28.90
2023-06-10T15:58:11.676Z,28.60
2023-06-10T16:00:38.578Z,28.50
2023-06-10T16:03:05.699Z,28.50
2023-06-10T16:05:32.622Z,28.50
2023-06-10T16:08:00.487Z,28.50
2023-06-10T16:10:30.919Z,28.60
2023-06-10T16:12:57.560Z,28.30
2023-06-10T16:15:24.392Z,28.20
2023-06-10T16:17:51.192Z,28.20
2023-06-10T16:20:18.018Z,28.20
2023-06-10T16:22:44.821Z,28.10
2023-06-10T16:25:11.995Z,28.10
2023-06-10T16:27:40.492Z,28.00
2023-06-10T16:30:07.793Z,28.10
2023-06-10T16:32:34.611Z,28.00
2023-06-10T16:35:01.412Z,28.00
2023-06-10T16:37:28.158Z,28.00
2023-06-10T16:39:54.978Z,28.10
2023-06-10T16:42:21.788Z,28.00
2023-06-10T16:44:49.910Z,28.10
2023-06-10T16:47:16.553Z,28.00
2023-06-10T16:49:43.458Z,27.90
2023-06-10T16:52:10.252Z,27.80
2023-06-10T16:54:37.050Z,27.70
2023-06-10T16:57:04.169Z,27.70
2023-06-10T16:59:30.959Z,27.70
2023-06-10T17:02:01.922Z,27.70
2023-06-10T17:04:30.796Z,27.70
2023-06-10T17:06:57.594Z,27.70
2023-06-10T17:09:24.525Z,27.70
2023-06-10T17:11:51.277Z,27.70
2023-06-10T17:14:18.281Z,27.60
2023-06-10T17:16:45.258Z,27.60
2023-06-10T17:19:13.490Z,27.50
2023-06-10T17:21:40.126Z,27.30
2023-06-10T17:24:07.717Z,27.30
2023-06-10T17:26:34.547Z,27.20
2023-06-10T17:29:01.296Z,27.20
2023-06-10T17:31:28.083Z,27.30
2023-06-10T17:33:54.964Z,27.30
2023-06-10T17:36:23.107Z,27.00
2023-06-10T17:38:49.905Z,27.00
2023-06-10T17:41:16.740Z,27.00
2023-06-10T17:43:45.396Z,27.00
2023-06-10T17:46:12.463Z,27.00
2023-06-10T17:48:39.310Z,26.90
2023-06-10T17:51:06.061Z,26.80
2023-06-10T17:53:34.240Z,26.80
2023-06-10T17:56:02.293Z,26.70
2023-06-10T17:58:29.162Z,26.60
2023-06-10T18:00:55.945Z,26.40
2023-06-10T18:03:22.882Z,26.40
2023-06-10T18:05:49.729Z,26.30
2023-06-10T18:08:16.536Z,26.30
2023-06-10T18:10:45.360Z,26.30
2023-06-10T18:13:12.167Z,26.20
2023-06-10T18:15:39.028Z,26.20
2023-06-10T18:18:06.048Z,26.10
2023-06-10T18:20:32.908Z,26.00
2023-06-10T18:22:59.832Z,26.00
2023-06-10T18:25:26.605Z,25.90
2023-06-10T18:27:54.728Z,25.80
2023-06-10T18:30:21.696Z,25.70
2023-06-10T18:32:48.521Z,25.70
2023-06-10T18:35:15.335Z,25.50
2023-06-10T18:37:42.186Z,25.50
2023-06-10T18:40:10.273Z,25.50
2023-06-10T18:42:37.275Z,25.50
2023-06-10T18:45:06.534Z,25.40
2023-06-10T18:47:41.146Z,25.40
2023-06-10T18:50:15.890Z,25.30
2023-06-10T18:52:42.728Z,25.30
2023-06-10T18:55:09.953Z,25.20
2023-06-10T18:57:36.895Z,25.10
2023-06-10T19:00:06.366Z,25.00
2023-06-10T19:02:33.216Z,25.00
2023-06-10T19:05:00.017Z,25.00
2023-06-10T19:07:26.797Z,24.90
2023-06-10T19:09:53.603Z,24.80
2023-06-10T19:12:20.748Z,24.70
2023-06-10T19:14:47.518Z,24.60
2023-06-10T19:17:15.872Z,24.50
2023-06-10T19:19:42.759Z,24.40
2023-06-10T19:22:09.625Z,24.20
2023-06-10T19:24:36.423Z,24.10
2023-06-10T19:27:03.478Z,24.00
2023-06-10T19:29:30.271Z,23.90
2023-06-10T19:31:57.153Z,23.80
2023-06-10T19:34:26.811Z,23.70
2023-06-10T19:36:53.647Z,23.60
2023-06-10T19:39:20.456Z,23.50
2023-06-10T19:41:47.222Z,23.40
2023-06-10T19:44:14.006Z,23.30
2023-06-10T19:46:40.912Z,23.20
2023-06-10T19:49:07.720Z,23.10
2023-06-10T19:51:35.877Z,23.00
2023-06-10T19:54:02.656Z,23.00
2023-06-10T19:56:29.405Z,22.90
2023-06-10T19:58:56.177Z,22.80
2023-06-10T20:01:22.954Z,22.70
2023-06-10T20:03:49.961Z,22.60
2023-06-10T20:06:17.381Z,22.50
2023-06-10T20:08:46.040Z,22.40
2023-06-10T20:11:17.201Z,22.30
2023-06-10T20:13:48.777Z,22.20
2023-06-10T20:16:16.737Z,22.10
2023-06-10T20:18:44.672Z,21.90
2023-06-10T20:21:17.440Z,21.80
2023-06-10T20:23:49.554Z,21.80
2023-06-10T20:26:23.127Z,21.70
2023-06-10T20:28:52.718Z,21.60
2023-06-10T20:31:22.768Z,21.50
2023-06-10T20:33:54.092Z,21.40
2023-06-10T20:36:28.999Z,21.30
2023-06-10T20:39:06.823Z,21.20
2023-06-10T20:41:41.835Z,21.20
2023-06-10T20:44:13.798Z,21.20
2023-06-10T20:46:51.436Z,21.20
2023-06-10T20:49:22.697Z,21.10
2023-06-10T20:52:07.937Z,21.10
2023-06-10T20:54:49.497Z,21.00
2023-06-10T20:57:33.061Z,20.90
2023-06-10T21:00:07.860Z,20.80
2023-06-10T21:02:44.924Z,20.80
2023-06-10T21:05:18.836Z,20.70
2023-06-10T21:07:50.199Z,20.60
2023-06-10T21:10:23.713Z,20.60
2023-06-10T21:12:58.760Z,20.60
2023-06-10T21:15:34.510Z,20.50
2023-06-10T21:18:13.827Z,20.40
2023-06-10T21:20:46.631Z,20.40
2023-06-10T21:23:24.469Z,20.40
2023-06-10T21:26:07.239Z,20.50
2023-06-10T21:28:48.032Z,20.50
2023-06-10T21:31:25.872Z,20.40
2023-06-10T21:34:00.197Z,20.40
2023-06-10T21:36:43.580Z,20.40
2023-06-10T21:39:11.138Z,20.40
2023-06-10T21:41:52.528Z,20.40
2023-06-10T21:44:27.605Z,20.40
2023-06-10T21:47:03.305Z,20.40
2023-06-10T21:49:37.570Z,20.40
2023-06-10T21:52:20.016Z,20.30
2023-06-10T21:54:47.483Z,20.20
2023-06-10T21:57:21.862Z,20.20
2023-06-10T21:59:53.465Z,20.10
2023-06-10T22:02:21.107Z,20.10
2023-06-10T22:05:17.436Z,20.00
2023-06-10T22:07:52.353Z,19.80
2023-06-10T22:10:22.466Z,19.70
2023-06-10T22:12:54.357Z,19.60
2023-06-10T22:15:25.619Z,19.40
2023-06-10T22:17:53.027Z,19.40
2023-06-10T22:20:25.444Z,19.30
2023-06-10T22:22:55.728Z,19.20
2023-06-10T22:25:27.742Z,19.10
2023-06-10T22:28:13.419Z,19.00
2023-06-10T22:30:48.012Z,19.00
2023-06-10T22:33:27.448Z,19.00
2023-06-10T22:35:54.829Z,18.90
2023-06-10T22:38:39.460Z,18.90
2023-06-10T22:41:13.612Z,18.80
2023-06-10T22:43:51.786Z,18.80
2023-06-10T22:46:19.487Z,18.80
2023-06-10T22:48:47.187Z,18.70
2023-06-10T22:51:17.650Z,18.70
2023-06-10T22:53:45.037Z,18.70
2023-06-10T22:56:15.454Z,18.60
2023-06-10T22:58:51.116Z,18.60
2023-06-10T23:01:21.659Z,18.50
2023-06-10T23:03:51.298Z,18.50
2023-06-10T23:06:29.053Z,18.60
2023-06-10T23:09:01.723Z,18.70
2023-06-10T23:11:34.788Z,18.70
2023-06-10T23:14:11.384Z,18.80
2023-06-10T23:16:43.723Z,18.80
2023-06-10T23:19:31.911Z,18.90
2023-06-10T23:22:13.898Z,19.00
2023-06-10T23:24:46.149Z,19.00
2023-06-10T23:27:20.449Z,19.10
2023-06-10T23:29:59.237Z,19.10
2023-06-10T23:32:36.737Z,19.10
2023-06-10T23:35:06.725Z,19.20
2023-06-10T23:37:39.795Z,19.20
2023-06-10T23:40:13.514Z,19.10
2023-06-10T23:42:45.985Z,19.10
2023-06-10T23:45:21.852Z,19.10
2023-06-10T23:47:57.255Z,19.00
2023-06-10T23:50:25.166Z,19.00
2023-06-10T23:52:55.069Z,19.00
2023-06-10T23:55:25.500Z,19.00
2023-06-10T23:57:55.055Z,18.90
